sensor_id;sensor_type;location;lat;lon;timestamp;pressure;altitude;pressure_sealevel;temperature;humidity
9676;BME280;4876;42.656;23.292;2023-02-02T00:01:00;94387.78;;;4.57;53.20
9676;BME280;4876;42.656;23.292;2023-02-02T00:03:27;94394.25;;;4.65;53.54
9676;BME280;4876;42.656;23.292;2023-02-02T00:05:54;94393.00;;;4.57;53.96
9676;BME280;4876;42.656;23.292;2023-02-02T00:08:22;94399.53;;;4.55;53.42
9676;BME280;4876;42.656;23.292;2023-02-02T00:10:49;94393.25;;;4.56;53.51
9676;BME280;4876;42.656;23.292;2023-02-02T00:13:17;94387.75;;;4.63;53.59
9676;BME280;4876;42.656;23.292;2023-02-02T00:15:44;94386.34;;;4.41;54.11
9676;BME280;4876;42.656;23.292;2023-02-02T00:18:10;94391.78;;;4.45;53.89
9676;BME280;4876;42.656;23.292;2023-02-02T00:20:37;94381.84;;;4.47;53.76
9676;BME280;4876;42.656;23.292;2023-02-02T00:23:04;94380.81;;;4.48;54.50
9676;BME280;4876;42.656;23.292;2023-02-02T00:25:31;94380.56;;;4.49;54.70
9676;BME280;4876;42.656;23.292;2023-02-02T00:27:58;94377.47;;;4.42;54.75
9676;BME280;4876;42.656;23.292;2023-02-02T00:30:26;94391.31;;;4.32;55.26
9676;BME280;4876;42.656;23.292;2023-02-02T00:32:53;94384.50;;;4.42;55.30
9676;BME280;4876;42.656;23.292;2023-02-02T00:35:20;94390.72;;;4.41;55.64
9676;BME280;4876;42.656;23.292;2023-02-02T00:37:46;94392.88;;;4.33;55.88
9676;BME280;4876;42.656;23.292;2023-02-02T00:40:13;94399.13;;;4.27;55.91
9676;BME280;4876;42.656;23.292;2023-02-02T00:42:40;94399.38;;;4.36;56.55
9676;BME280;4876;42.656;23.292;2023-02-02T00:45:12;94398.34;;;4.32;56.44
9676;BME280;4876;42.656;23.292;2023-02-02T00:47:44;94402.47;;;4.43;56.47
9676;BME280;4876;42.656;23.292;2023-02-02T00:50:12;94401.00;;;4.22;57.04
9676;BME280;4876;42.656;23.292;2023-02-02T00:52:40;94391.00;;;4.39;58.81
9676;BME280;4876;42.656;23.292;2023-02-02T00:55:08;94408.00;;;4.26;59.00
9676;BME280;4876;42.656;23.292;2023-02-02T00:57:35;94403.06;;;4.30;59.06
9676;BME280;4876;42.656;23.292;2023-02-02T01:00:03;94397.00;;;4.35;58.28
9676;BME280;4876;42.656;23.292;2023-02-02T01:02:31;94388.31;;;4.10;58.26
9676;BME280;4876;42.656;23.292;2023-02-02T01:04:59;94396.38;;;4.03;58.63
9676;BME280;4876;42.656;23.292;2023-02-02T01:07:26;94378.91;;;4.14;58.45
9676;BME280;4876;42.656;23.292;2023-02-02T01:09:53;94387.03;;;4.02;58.04
9676;BME280;4876;42.656;23.292;2023-02-02T01:12:20;94377.66;;;4.07;58.58
9676;BME280;4876;42.656;23.292;2023-02-02T01:14:47;94368.00;;;4.07;58.33
9676;BME280;4876;42.656;23.292;2023-02-02T01:17:13;94370.34;;;4.09;58.54
9676;BME280;4876;42.656;23.292;2023-02-02T01:19:40;94355.81;;;4.02;58.77
9676;BME280;4876;42.656;23.292;2023-02-02T01:22:08;94362.50;;;4.19;58.85
9676;BME280;4876;42.656;23.292;2023-02-02T01:24:35;94369.03;;;4.16;58.50
9676;BME280;4876;42.656;23.292;2023-02-02T01:27:02;94371.59;;;4.21;58.42
9676;BME280;4876;42.656;23.292;2023-02-02T01:29:29;94362.16;;;4.36;58.37
9676;BME280;4876;42.656;23.292;2023-02-02T01:31:56;94361.94;;;4.22;59.03
9676;BME280;4876;42.656;23.292;2023-02-02T01:34:23;94359.03;;;4.28;58.67
9676;BME280;4876;42.656;23.292;2023-02-02T01:36:49;94358.47;;;4.42;58.71
9676;BME280;4876;42.656;23.292;2023-02-02T01:39:18;94355.34;;;4.40;58.41
9676;BME280;4876;42.656;23.292;2023-02-02T01:41:44;94355.63;;;4.38;58.10
9676;BME280;4876;42.656;23.292;2023-02-02T01:47:15;94347.91;;;4.23;58.75
9676;BME280;4876;42.656;23.292;2023-02-02T01:49:43;94340.31;;;4.26;58.99
9676;BME280;4876;42.656;23.292;2023-02-02T01:52:11;94341.19;;;4.17;58.72
9676;BME280;4876;42.656;23.292;2023-02-02T01:54:44;94316.69;;;4.23;57.98
9676;BME280;4876;42.656;23.292;2023-02-02T01:57:15;94326.31;;;4.22;58.25
9676;BME280;4876;42.656;23.292;2023-02-02T01:59:46;94301.13;;;4.08;57.58
9676;BME280;4876;42.656;23.292;2023-02-02T02:02:15;94328.97;;;4.12;57.58
9676;BME280;4876;42.656;23.292;2023-02-02T02:04:42;94330.00;;;4.16;57.89
9676;BME280;4876;42.656;23.292;2023-02-02T02:07:10;94310.03;;;3.96;58.82
9676;BME280;4876;42.656;23.292;2023-02-02T02:09:37;94316.78;;;3.97;59.23
9676;BME280;4876;42.656;23.292;2023-02-02T02:12:11;94307.91;;;4.03;58.07
9676;BME280;4876;42.656;23.292;2023-02-02T02:14:40;94335.75;;;4.03;58.07
9676;BME280;4876;42.656;23.292;2023-02-02T02:17:38;94328.19;;;4.12;57.90
9676;BME280;4876;42.656;23.292;2023-02-02T02:23:57;94325.94;;;3.90;57.97
9676;BME280;4876;42.656;23.292;2023-02-02T02:27:04;94337.47;;;3.73;60.47
9676;BME280;4876;42.656;23.292;2023-02-02T02:33:03;94333.06;;;3.74;60.98
9676;BME280;4876;42.656;23.292;2023-02-02T02:35:36;94330.75;;;3.62;59.79
9676;BME280;4876;42.656;23.292;2023-02-02T02:38:11;94332.03;;;3.60;60.85
9676;BME280;4876;42.656;23.292;2023-02-02T02:40:41;94332.31;;;3.63;59.94
9676;BME280;4876;42.656;23.292;2023-02-02T02:43:15;94331.03;;;3.61;58.91
9676;BME280;4876;42.656;23.292;2023-02-02T02:45:44;94332.81;;;3.60;59.93
9676;BME280;4876;42.656;23.292;2023-02-02T02:48:13;94339.88;;;3.55;59.95
9676;BME280;4876;42.656;23.292;2023-02-02T02:50:40;94331.81;;;3.56;60.73
9676;BME280;4876;42.656;23.292;2023-02-02T02:53:08;94325.88;;;3.45;60.86
9676;BME280;4876;42.656;23.292;2023-02-02T02:55:44;94327.69;;;3.40;60.05
9676;BME280;4876;42.656;23.292;2023-02-02T02:58:16;94328.47;;;3.35;60.31
9676;BME280;4876;42.656;23.292;2023-02-02T03:00:54;94342.78;;;3.43;60.62
9676;BME280;4876;42.656;23.292;2023-02-02T03:03:37;94324.59;;;3.38;60.60
9676;BME280;4876;42.656;23.292;2023-02-02T03:06:11;94329.78;;;3.48;59.46
9676;BME280;4876;42.656;23.292;2023-02-02T03:08:45;94327.41;;;3.46;60.43
9676;BME280;4876;42.656;23.292;2023-02-02T03:11:14;94321.22;;;3.37;60.32
9676;BME280;4876;42.656;23.292;2023-02-02T03:13:42;94316.78;;;3.43;60.33
9676;BME280;4876;42.656;23.292;2023-02-02T03:16:09;94329.78;;;3.48;60.00
9676;BME280;4876;42.656;23.292;2023-02-02T03:18:38;94320.44;;;3.37;60.66
9676;BME280;4876;42.656;23.292;2023-02-02T03:21:05;94316.53;;;3.34;60.02
9676;BME280;4876;42.656;23.292;2023-02-02T03:23:31;94323.00;;;3.47;59.13
9676;BME280;4876;42.656;23.292;2023-02-02T03:25:58;94309.00;;;3.38;60.42
9676;BME280;4876;42.656;23.292;2023-02-02T03:28:26;94313.16;;;3.39;59.25
9676;BME280;4876;42.656;23.292;2023-02-02T03:30:53;94314.19;;;3.48;58.46
9676;BME280;4876;42.656;23.292;2023-02-02T03:33:21;94316.28;;;3.36;59.80
9676;BME280;4876;42.656;23.292;2023-02-02T03:35:49;94315.25;;;3.32;60.60
9676;BME280;4876;42.656;23.292;2023-02-02T03:38:16;94313.13;;;3.44;59.17
9676;BME280;4876;42.656;23.292;2023-02-02T03:40:43;94305.31;;;3.49;56.26
9676;BME280;4876;42.656;23.292;2023-02-02T03:43:10;94318.28;;;3.59;55.90
9676;BME280;4876;42.656;23.292;2023-02-02T03:45:36;94312.03;;;3.60;57.19
9676;BME280;4876;42.656;23.292;2023-02-02T03:48:05;94303.69;;;3.63;56.78
9676;BME280;4876;42.656;23.292;2023-02-02T03:50:33;94317.19;;;3.70;55.36
9676;BME280;4876;42.656;23.292;2023-02-02T03:53:01;94318.34;;;3.39;57.64
9676;BME280;4876;42.656;23.292;2023-02-02T03:55:29;94315.22;;;3.42;57.87
9676;BME280;4876;42.656;23.292;2023-02-02T03:57:56;94302.16;;;3.57;56.09
9676;BME280;4876;42.656;23.292;2023-02-02T04:00:22;94307.63;;;3.61;54.12
9676;BME280;4876;42.656;23.292;2023-02-02T04:02:49;94322.88;;;3.77;54.03
9676;BME280;4876;42.656;23.292;2023-02-02T04:05:16;94321.63;;;3.70;53.44
9676;BME280;4876;42.656;23.292;2023-02-02T04:07:43;94310.16;;;3.71;52.99
9676;BME280;4876;42.656;23.292;2023-02-02T04:10:11;94321.47;;;4.00;53.24
9676;BME280;4876;42.656;23.292;2023-02-02T04:12:38;94324.34;;;4.04;52.40
9676;BME280;4876;42.656;23.292;2023-02-02T04:15:06;94322.00;;;3.97;52.79
9676;BME280;4876;42.656;23.292;2023-02-02T04:17:33;94343.16;;;3.81;55.65
9676;BME280;4876;42.656;23.292;2023-02-02T04:20:00;94324.00;;;3.61;56.01
9676;BME280;4876;42.656;23.292;2023-02-02T04:22:27;94346.28;;;3.77;54.77
9676;BME280;4876;42.656;23.292;2023-02-02T04:24:53;94355.94;;;3.72;54.27
9676;BME280;4876;42.656;23.292;2023-02-02T04:27:22;94360.34;;;3.66;55.08
9676;BME280;4876;42.656;23.292;2023-02-02T04:29:48;94348.88;;;3.77;54.84
9676;BME280;4876;42.656;23.292;2023-02-02T04:32:16;94350.00;;;3.56;56.86
9676;BME280;4876;42.656;23.292;2023-02-02T04:34:43;94355.22;;;3.51;58.26
9676;BME280;4876;42.656;23.292;2023-02-02T04:37:10;94325.09;;;3.40;57.82
9676;BME280;4876;42.656;23.292;2023-02-02T04:39:37;94349.53;;;3.49;57.95
9676;BME280;4876;42.656;23.292;2023-02-02T04:42:04;94347.41;;;3.56;58.66
9676;BME280;4876;42.656;23.292;2023-02-02T04:44:32;94351.53;;;3.67;57.66
9676;BME280;4876;42.656;23.292;2023-02-02T04:46:59;94357.81;;;3.56;57.49
9676;BME280;4876;42.656;23.292;2023-02-02T04:49:26;94354.38;;;3.66;57.84
9676;BME280;4876;42.656;23.292;2023-02-02T04:51:52;94356.53;;;3.48;58.21
9676;BME280;4876;42.656;23.292;2023-02-02T04:54:19;94349.53;;;3.34;57.42
9676;BME280;4876;42.656;23.292;2023-02-02T04:56:46;94346.16;;;3.48;56.72
9676;BME280;4876;42.656;23.292;2023-02-02T04:59:13;94343.50;;;3.54;57.09
9676;BME280;4876;42.656;23.292;2023-02-02T05:01:41;94348.75;;;3.43;57.26
9676;BME280;4876;42.656;23.292;2023-02-02T05:04:09;94351.09;;;3.40;57.19
9676;BME280;4876;42.656;23.292;2023-02-02T05:06:36;94352.41;;;3.37;56.81
9676;BME280;4876;42.656;23.292;2023-02-02T05:09:03;94359.44;;;3.16;58.24
9676;BME280;4876;42.656;23.292;2023-02-02T05:11:30;94343.34;;;3.09;59.44
9676;BME280;4876;42.656;23.292;2023-02-02T05:13:56;94353.22;;;3.17;59.08
9676;BME280;4876;42.656;23.292;2023-02-02T05:16:24;94350.09;;;3.20;58.62
9676;BME280;4876;42.656;23.292;2023-02-02T05:18:53;94352.19;;;3.08;59.53
9676;BME280;4876;42.656;23.292;2023-02-02T05:21:21;94348.81;;;3.13;58.83
9676;BME280;4876;42.656;23.292;2023-02-02T05:23:49;94342.56;;;3.09;58.71
9676;BME280;4876;42.656;23.292;2023-02-02T05:26:18;94340.19;;;3.22;57.52
9676;BME280;4876;42.656;23.292;2023-02-02T05:28:46;94329.78;;;3.48;56.13
9676;BME280;4876;42.656;23.292;2023-02-02T05:31:13;94326.31;;;3.68;55.17
9676;BME280;4876;42.656;23.292;2023-02-02T05:33:40;94319.78;;;3.75;53.13
9676;BME280;4876;42.656;23.292;2023-02-02T05:36:08;94320.25;;;3.83;53.56
9676;BME280;4876;42.656;23.292;2023-02-02T05:38:35;94324.41;;;3.89;53.13
9676;BME280;4876;42.656;23.292;2023-02-02T05:41:03;94347.81;;;3.84;52.74
9676;BME280;4876;42.656;23.292;2023-02-02T05:43:31;94283.53;;;3.35;53.95
9676;BME280;4876;42.656;23.292;2023-02-02T05:45:58;94347.88;;;3.73;53.27
9676;BME280;4876;42.656;23.292;2023-02-02T05:48:25;94356.47;;;3.69;54.70
9676;BME280;4876;42.656;23.292;2023-02-02T05:50:57;94362.72;;;3.63;54.88
9676;BME280;4876;42.656;23.292;2023-02-02T05:53:27;94350.56;;;3.48;55.83
9676;BME280;4876;42.656;23.292;2023-02-02T05:55:54;94357.50;;;3.73;55.97
9676;BME280;4876;42.656;23.292;2023-02-02T05:58:21;94353.00;;;3.94;53.19
9676;BME280;4876;42.656;23.292;2023-02-02T06:00:47;94352.72;;;3.90;51.82
9676;BME280;4876;42.656;23.292;2023-02-02T06:03:14;94346.69;;;4.10;52.25
9676;BME280;4876;42.656;23.292;2023-02-02T06:05:41;94346.59;;;4.20;51.44
9676;BME280;4876;42.656;23.292;2023-02-02T06:08:08;94344.47;;;4.32;50.80
9676;BME280;4876;42.656;23.292;2023-02-02T06:10:37;94353.59;;;4.30;50.39
9676;BME280;4876;42.656;23.292;2023-02-02T06:13:04;94355.44;;;4.24;50.65
9676;BME280;4876;42.656;23.292;2023-02-02T06:15:31;94354.69;;;4.19;52.07
9676;BME280;4876;42.656;23.292;2023-02-02T06:17:59;94333.69;;;4.05;52.55
9676;BME280;4876;42.656;23.292;2023-02-02T06:20:26;94373.94;;;4.23;51.79
9676;BME280;4876;42.656;23.292;2023-02-02T06:22:53;94373.66;;;4.24;52.19
9676;BME280;4876;42.656;23.292;2023-02-02T06:25:19;94381.31;;;4.50;52.02
9676;BME280;4876;42.656;23.292;2023-02-02T06:27:47;94387.56;;;4.54;51.47
9676;BME280;4876;42.656;23.292;2023-02-02T06:30:15;94389.16;;;4.45;51.62
9676;BME280;4876;42.656;23.292;2023-02-02T06:32:42;94389.72;;;4.42;52.88
9676;BME280;4876;42.656;23.292;2023-02-02T06:35:08;94396.84;;;4.65;51.69
9676;BME280;4876;42.656;23.292;2023-02-02T06:37:35;94393.16;;;4.71;51.37
9676;BME280;4876;42.656;23.292;2023-02-02T06:40:05;94384.31;;;4.72;50.84
9676;BME280;4876;42.656;23.292;2023-02-02T06:42:32;94397.09;;;4.69;51.86
9676;BME280;4876;42.656;23.292;2023-02-02T06:45:00;94375.09;;;4.46;52.99
9676;BME280;4876;42.656;23.292;2023-02-02T06:47:27;94391.19;;;4.53;53.31
9676;BME280;4876;42.656;23.292;2023-02-02T06:49:54;94391.09;;;4.68;53.02
9676;BME280;4876;42.656;23.292;2023-02-02T06:52:20;94397.25;;;4.82;51.67
9676;BME280;4876;42.656;23.292;2023-02-02T06:54:47;94383.38;;;4.92;51.82
9676;BME280;4876;42.656;23.292;2023-02-02T06:57:14;94389.81;;;5.05;50.85
9676;BME280;4876;42.656;23.292;2023-02-02T06:59:41;94395.13;;;4.90;50.82
9676;BME280;4876;42.656;23.292;2023-02-02T07:02:10;94411.00;;;4.93;50.83
9676;BME280;4876;42.656;23.292;2023-02-02T07:04:37;94410.31;;;4.77;52.43
9676;BME280;4876;42.656;23.292;2023-02-02T07:07:04;94417.13;;;4.73;52.78
9676;BME280;4876;42.656;23.292;2023-02-02T07:09:31;94414.75;;;4.77;53.25
9676;BME280;4876;42.656;23.292;2023-02-02T07:11:58;94423.34;;;4.77;53.02
9676;BME280;4876;42.656;23.292;2023-02-02T07:14:25;94407.66;;;4.82;53.01
9676;BME280;4876;42.656;23.292;2023-02-02T07:16:51;94403.38;;;5.02;53.44
9676;BME280;4876;42.656;23.292;2023-02-02T07:19:20;94408.03;;;5.05;52.95
9676;BME280;4876;42.656;23.292;2023-02-02T07:21:46;94418.19;;;5.06;52.74
9676;BME280;4876;42.656;23.292;2023-02-02T07:24:13;94427.91;;;4.96;52.82
9676;BME280;4876;42.656;23.292;2023-02-02T07:26:40;94418.53;;;4.95;52.37
9676;BME280;4876;42.656;23.292;2023-02-02T07:29:08;94419.78;;;5.02;52.37
9676;BME280;4876;42.656;23.292;2023-02-02T07:31:37;94434.13;;;5.00;52.87
9676;BME280;4876;42.656;23.292;2023-02-02T07:34:04;94428.59;;;5.11;52.61
9676;BME280;4876;42.656;23.292;2023-02-02T07:36:32;94427.03;;;5.10;53.22
9676;BME280;4876;42.656;23.292;2023-02-02T07:38:59;94431.28;;;5.30;53.41
9676;BME280;4876;42.656;23.292;2023-02-02T07:41:28;94422.31;;;5.47;52.45
9676;BME280;4876;42.656;23.292;2023-02-02T07:43:55;94431.13;;;5.51;52.34
9676;BME280;4876;42.656;23.292;2023-02-02T07:46:22;94416.34;;;5.41;52.38
9676;BME280;4876;42.656;23.292;2023-02-02T07:48:52;94412.69;;;5.42;51.89
9676;BME280;4876;42.656;23.292;2023-02-02T07:51:19;94408.16;;;5.53;52.14
9676;BME280;4876;42.656;23.292;2023-02-02T07:53:49;94406.03;;;5.55;51.66
9676;BME280;4876;42.656;23.292;2023-02-02T07:56:20;94391.94;;;5.56;51.53
9676;BME280;4876;42.656;23.292;2023-02-02T07:58:47;94385.97;;;5.79;51.75
9676;BME280;4876;42.656;23.292;2023-02-02T08:01:15;94381.09;;;5.73;51.55
9676;BME280;4876;42.656;23.292;2023-02-02T08:03:42;94382.97;;;5.67;51.96
9676;BME280;4876;42.656;23.292;2023-02-02T08:06:12;94384.34;;;5.83;51.76
9676;BME280;4876;42.656;23.292;2023-02-02T08:08:39;94389.56;;;5.83;51.71
9676;BME280;4876;42.656;23.292;2023-02-02T08:11:09;94388.84;;;6.02;51.77
9676;BME280;4876;42.656;23.292;2023-02-02T08:13:37;94361.25;;;5.96;51.45
9676;BME280;4876;42.656;23.292;2023-02-02T08:16:05;94370.84;;;6.24;51.55
9676;BME280;4876;42.656;23.292;2023-02-02T08:18:32;94369.16;;;6.33;51.75
9676;BME280;4876;42.656;23.292;2023-02-02T08:20:59;94372.47;;;6.58;51.64
9676;BME280;4876;42.656;23.292;2023-02-02T08:23:26;94374.72;;;6.64;51.57
9676;BME280;4876;42.656;23.292;2023-02-02T08:25:53;94375.66;;;6.73;51.72
9676;BME280;4876;42.656;23.292;2023-02-02T08:28:22;94371.97;;;6.56;51.22
9676;BME280;4876;42.656;23.292;2023-02-02T08:30:49;94368.72;;;6.26;52.18
9676;BME280;4876;42.656;23.292;2023-02-02T08:33:15;94363.16;;;6.33;51.71
9676;BME280;4876;42.656;23.292;2023-02-02T08:35:42;94361.94;;;6.25;52.14
9676;BME280;4876;42.656;23.292;2023-02-02T08:38:11;94358.50;;;6.30;52.71
9676;BME280;4876;42.656;23.292;2023-02-02T08:40:38;94370.78;;;6.29;53.20
9676;BME280;4876;42.656;23.292;2023-02-02T08:43:04;94362.69;;;6.07;53.60
9676;BME280;4876;42.656;23.292;2023-02-02T08:45:32;94369.19;;;5.85;54.48
9676;BME280;4876;42.656;23.292;2023-02-02T08:47:59;94364.19;;;6.13;53.77
9676;BME280;4876;42.656;23.292;2023-02-02T08:50:26;94365.75;;;6.14;53.81
9676;BME280;4876;42.656;23.292;2023-02-02T08:52:53;94354.38;;;6.05;53.98
9676;BME280;4876;42.656;23.292;2023-02-02T08:55:19;94339.16;;;6.12;54.04
9676;BME280;4876;42.656;23.292;2023-02-02T08:57:46;94341.53;;;6.27;53.45
9676;BME280;4876;42.656;23.292;2023-02-02T09:00:14;94338.38;;;6.30;53.71
9676;BME280;4876;42.656;23.292;2023-02-02T09:02:42;94350.72;;;6.25;53.38
9676;BME280;4876;42.656;23.292;2023-02-02T09:05:09;94344.88;;;6.52;52.22
9676;BME280;4876;42.656;23.292;2023-02-02T09:07:35;94321.72;;;6.26;52.62
9676;BME280;4876;42.656;23.292;2023-02-02T09:10:02;94350.09;;;6.52;52.74
9676;BME280;4876;42.656;23.292;2023-02-02T09:12:29;94349.03;;;6.71;51.79
9676;BME280;4876;42.656;23.292;2023-02-02T09:14:56;94344.00;;;6.75;52.23
9676;BME280;4876;42.656;23.292;2023-02-02T09:17:22;94349.72;;;6.39;53.83
9676;BME280;4876;42.656;23.292;2023-02-02T09:19:51;94338.66;;;6.47;53.33
9676;BME280;4876;42.656;23.292;2023-02-02T09:22:17;94341.69;;;6.73;52.23
9676;BME280;4876;42.656;23.292;2023-02-02T09:24:45;94354.03;;;6.68;53.57
9676;BME280;4876;42.656;23.292;2023-02-02T09:27:12;94347.69;;;6.74;52.67
9676;BME280;4876;42.656;23.292;2023-02-02T09:29:39;94352.06;;;6.79;53.52
9676;BME280;4876;42.656;23.292;2023-02-02T09:32:06;94342.53;;;7.01;52.72
9676;BME280;4876;42.656;23.292;2023-02-02T09:34:33;94335.66;;;6.92;51.66
9676;BME280;4876;42.656;23.292;2023-02-02T09:37:01;94337.75;;;7.22;51.99
9676;BME280;4876;42.656;23.292;2023-02-02T09:39:28;94322.56;;;7.38;50.96
9676;BME280;4876;42.656;23.292;2023-02-02T09:42:33;94326.75;;;7.39;50.39
9676;BME280;4876;42.656;23.292;2023-02-02T09:45:07;94321.50;;;7.39;49.98
9676;BME280;4876;42.656;23.292;2023-02-02T09:47:53;94333.13;;;7.33;51.13
9676;BME280;4876;42.656;23.292;2023-02-02T09:50:38;94338.16;;;7.43;51.43
9676;BME280;4876;42.656;23.292;2023-02-02T09:53:13;94314.81;;;7.33;51.61
9676;BME280;4876;42.656;23.292;2023-02-02T09:55:45;94328.81;;;7.10;54.39
9676;BME280;4876;42.656;23.292;2023-02-02T09:58:17;94329.63;;;6.59;55.97
9676;BME280;4876;42.656;23.292;2023-02-02T10:00:47;94329.94;;;6.90;53.31
9676;BME280;4876;42.656;23.292;2023-02-02T10:03:20;94306.75;;;6.51;54.98
9676;BME280;4876;42.656;23.292;2023-02-02T10:05:51;94317.19;;;6.51;54.87
9676;BME280;4876;42.656;23.292;2023-02-02T10:08:26;94314.47;;;6.42;55.56
9676;BME280;4876;42.656;23.292;2023-02-02T10:13:44;94296.69;;;7.23;51.00
9676;BME280;4876;42.656;23.292;2023-02-02T10:16:15;94305.44;;;7.60;50.51
9676;BME280;4876;42.656;23.292;2023-02-02T10:18:47;94302.41;;;7.80;51.75
9676;BME280;4876;42.656;23.292;2023-02-02T10:21:24;94289.63;;;7.78;50.26
9676;BME280;4876;42.656;23.292;2023-02-02T10:23:53;94292.03;;;7.75;50.06
9676;BME280;4876;42.656;23.292;2023-02-02T10:26:27;94281.13;;;8.09;48.84
9676;BME280;4876;42.656;23.292;2023-02-02T10:29:06;94281.16;;;8.31;48.30
9676;BME280;4876;42.656;23.292;2023-02-02T10:31:42;94282.22;;;8.30;48.86
9676;BME280;4876;42.656;23.292;2023-02-02T10:34:21;94277.94;;;8.48;48.19
9676;BME280;4876;42.656;23.292;2023-02-02T10:37:01;94267.03;;;8.55;47.04
9676;BME280;4876;42.656;23.292;2023-02-02T10:39:42;94267.34;;;8.53;47.96
9676;BME280;4876;42.656;23.292;2023-02-02T10:42:18;94254.03;;;8.50;48.29
9676;BME280;4876;42.656;23.292;2023-02-02T10:44:52;94247.59;;;8.56;47.25
9676;BME280;4876;42.656;23.292;2023-02-02T10:47:23;94223.25;;;8.33;46.94
9676;BME280;4876;42.656;23.292;2023-02-02T10:49:57;94217.16;;;8.24;47.48
9676;BME280;4876;42.656;23.292;2023-02-02T10:52:31;94225.31;;;8.22;47.85
9676;BME280;4876;42.656;23.292;2023-02-02T10:55:05;94209.91;;;8.21;48.07
9676;BME280;4876;42.656;23.292;2023-02-02T10:57:45;94196.50;;;8.22;47.88
9676;BME280;4876;42.656;23.292;2023-02-02T11:00:19;94202.25;;;8.10;48.00
9676;BME280;4876;42.656;23.292;2023-02-02T11:02:47;94200.97;;;8.22;47.74
9676;BME280;4876;42.656;23.292;2023-02-02T11:05:18;94205.00;;;8.28;48.13
9676;BME280;4876;42.656;23.292;2023-02-02T11:08:11;94200.25;;;8.30;47.92
9676;BME280;4876;42.656;23.292;2023-02-02T11:10:39;94206.75;;;8.32;46.91
9676;BME280;4876;42.656;23.292;2023-02-02T11:13:10;94200.72;;;8.32;47.42
9676;BME280;4876;42.656;23.292;2023-02-02T11:15:40;94205.78;;;8.28;46.80
9676;BME280;4876;42.656;23.292;2023-02-02T11:18:13;94195.88;;;8.25;46.85
9676;BME280;4876;42.656;23.292;2023-02-02T11:20:41;94188.34;;;8.24;46.44
9676;BME280;4876;42.656;23.292;2023-02-02T11:23:16;94181.78;;;8.35;46.68
9676;BME280;4876;42.656;23.292;2023-02-02T11:25:56;94184.22;;;8.45;45.82
9676;BME280;4876;42.656;23.292;2023-02-02T11:28:24;94142.06;;;8.19;45.60
9676;BME280;4876;42.656;23.292;2023-02-02T11:30:55;94178.97;;;8.45;46.10
9676;BME280;4876;42.656;23.292;2023-02-02T11:33:26;94162.16;;;8.46;45.43
9676;BME280;4876;42.656;23.292;2023-02-02T11:35:55;94166.47;;;8.51;46.39
9676;BME280;4876;42.656;23.292;2023-02-02T11:38:23;94148.66;;;8.61;46.20
9676;BME280;4876;42.656;23.292;2023-02-02T11:40:55;94159.28;;;8.56;46.63
9676;BME280;4876;42.656;23.292;2023-02-02T11:43:27;94163.47;;;8.57;45.67
9676;BME280;4876;42.656;23.292;2023-02-02T11:45:57;94154.19;;;8.51;46.44
9676;BME280;4876;42.656;23.292;2023-02-02T11:48:29;94147.97;;;8.47;46.84
9676;BME280;4876;42.656;23.292;2023-02-02T11:50:58;94141.97;;;8.47;46.38
9676;BME280;4876;42.656;23.292;2023-02-02T11:53:27;94136.41;;;8.48;46.58
9676;BME280;4876;42.656;23.292;2023-02-02T11:55:58;94131.41;;;8.60;46.25
9676;BME280;4876;42.656;23.292;2023-02-02T11:58:28;94149.16;;;8.63;47.16
9676;BME280;4876;42.656;23.292;2023-02-02T12:00:58;94140.69;;;8.75;46.78
9676;BME280;4876;42.656;23.292;2023-02-02T12:03:31;94137.19;;;8.80;45.77
9676;BME280;4876;42.656;23.292;2023-02-02T12:05:59;94132.03;;;8.66;45.87
9676;BME280;4876;42.656;23.292;2023-02-02T12:08:28;94145.47;;;8.65;45.47
9676;BME280;4876;42.656;23.292;2023-02-02T12:10:59;94135.03;;;8.51;46.42
9676;BME280;4876;42.656;23.292;2023-02-02T12:13:43;94135.44;;;8.67;46.01
9676;BME280;4876;42.656;23.292;2023-02-02T12:16:30;94150.72;;;8.73;46.41
9676;BME280;4876;42.656;23.292;2023-02-02T12:19:13;94153.81;;;8.75;46.78
9676;BME280;4876;42.656;23.292;2023-02-02T12:21:49;94144.25;;;8.71;47.00
9676;BME280;4876;42.656;23.292;2023-02-02T12:24:27;94147.00;;;8.66;47.00
9676;BME280;4876;42.656;23.292;2023-02-02T12:27:06;94152.97;;;8.57;47.23
9676;BME280;4876;42.656;23.292;2023-02-02T12:29:50;94145.69;;;8.54;47.84
9676;BME280;4876;42.656;23.292;2023-02-02T12:32:27;94150.06;;;8.59;47.24
9676;BME280;4876;42.656;23.292;2023-02-02T12:35:15;94152.16;;;8.48;46.54
9676;BME280;4876;42.656;23.292;2023-02-02T12:37:53;94157.50;;;8.43;45.50
9676;BME280;4876;42.656;23.292;2023-02-02T12:40:32;94140.19;;;8.33;44.45
9676;BME280;4876;42.656;23.292;2023-02-02T12:43:13;94151.03;;;8.41;44.07
9676;BME280;4876;42.656;23.292;2023-02-02T12:46:17;94162.03;;;8.29;44.91
9676;BME280;4876;42.656;23.292;2023-02-02T12:49:02;94150.69;;;8.20;44.38
9676;BME280;4876;42.656;23.292;2023-02-02T12:51:43;94148.50;;;8.13;44.04
9676;BME280;4876;42.656;23.292;2023-02-02T12:54:23;94145.03;;;7.95;44.93
9676;BME280;4876;42.656;23.292;2023-02-02T12:56:59;94152.63;;;8.05;45.07
9676;BME280;4876;42.656;23.292;2023-02-02T12:59:45;94151.13;;;8.13;45.18
9676;BME280;4876;42.656;23.292;2023-02-02T13:02:25;94140.72;;;7.99;45.22
9676;BME280;4876;42.656;23.292;2023-02-02T13:05:07;94152.50;;;8.10;46.19
9676;BME280;4876;42.656;23.292;2023-02-02T13:07:43;94152.38;;;7.93;46.79
9676;BME280;4876;42.656;23.292;2023-02-02T13:10:17;94156.13;;;8.01;46.39
9676;BME280;4876;42.656;23.292;2023-02-02T13:12:49;94154.69;;;7.95;46.49
9676;BME280;4876;42.656;23.292;2023-02-02T13:15:20;94144.16;;;7.86;46.79
9676;BME280;4876;42.656;23.292;2023-02-02T13:17:51;94152.56;;;7.97;46.17
9676;BME280;4876;42.656;23.292;2023-02-02T13:20:26;94154.31;;;8.01;45.68
9676;BME280;4876;42.656;23.292;2023-02-02T13:23:00;94151.97;;;8.00;44.71
9676;BME280;4876;42.656;23.292;2023-02-02T13:25:30;94145.06;;;8.04;44.92
9676;BME280;4876;42.656;23.292;2023-02-02T13:28:01;94143.56;;;8.12;44.90
9676;BME280;4876;42.656;23.292;2023-02-02T13:30:36;94136.78;;;8.10;44.26
9676;BME280;4876;42.656;23.292;2023-02-02T13:33:06;94156.72;;;7.98;44.41
9676;BME280;4876;42.656;23.292;2023-02-02T13:35:43;94143.75;;;7.93;44.80
9676;BME280;4876;42.656;23.292;2023-02-02T13:38:15;94152.03;;;7.86;44.79
9676;BME280;4876;42.656;23.292;2023-02-02T13:40:45;94143.59;;;7.89;45.48
9676;BME280;4876;42.656;23.292;2023-02-02T13:43:28;94141.66;;;7.81;45.15
9676;BME280;4876;42.656;23.292;2023-02-02T13:46:10;94142.78;;;7.66;45.68
9676;BME280;4876;42.656;23.292;2023-02-02T13:48:49;94148.53;;;7.54;45.61
9676;BME280;4876;42.656;23.292;2023-02-02T13:51:43;94155.56;;;7.68;46.13